^^
Station Historical Data
Daily Summary for January 31, 2017 Units:  Metric    English   Both
« Previous Day
Next Day »
Daily Weekly Monthly Yearly Custom
  High: Low: Average:
Temperature: 37.6 °C 33.6 °C 36.2 °C
Dew Point: 6.5 °C 1.1 °C 2.5 °C
Humidity: 18% 11% 12%
Wind Speed: 24.1km/h 0km/h 1.9km/h
Wind Gust: 24.1km/h - -
Wind- - SSW
Pressure: 1009.7 hPa 1005.3 hPa -
Precipitation: 0 mm    
Historical Graphs
 
 
Tabular Data for January 31, 2017
Time Temperature Dew Point Pressure Wind Wind Speed Wind Gust Humidity Rainfall Rate (Hourly) solar Conditions
12:50 33.6 °C 4.3 °C 1009.7 hPa Calm     16% 0 mm 986.0 W/m2
13:00 33.9 °C 3.6 °C 1009.7 hPa Calm   3.2 km/h 15% 0 mm 990.0 W/m2
13:36 34.7 °C 3.3 °C 1009 hPa Calm     14% 0 mm 976.0 W/m2
13:45 34.4 °C 3.1 °C 1009 hPa Calm     14% 0 mm 970.0 W/m2
13:51 34.7 °C 3.3 °C 1009 hPa Calm     14% 0 mm 963.0 W/m2
14:07 34.9 °C 3.4 °C 1008.7 hPa Calm   1.6 km/h 14% 0 mm 956.0 W/m2
14:13 35.6 °C 2.9 °C 1008.7 hPa Calm     13% 0 mm 949.0 W/m2
14:58 36.2 °C 2.3 °C 1007.7 hPa SSW 1.4 km/h 9.7 km/h 12% 0 mm 868.0 W/m2
15:15 36.2 °C 2.3 °C 1007.7 hPa SSW 1.4 km/h 6.4 km/h 12% 0 mm 846.0 W/m2
15:23 36.2 °C 1.1 °C 1007.3 hPa Calm   8 km/h 11% 0 mm 810.0 W/m2
15:39 36.6 °C 2.6 °C 1007 hPa Calm     12% 0 mm 772.0 W/m2
15:49 36.8 °C 1.5 °C 1006.7 hPa Calm     11% 0 mm 745.0 W/m2
16:04 36.5 °C 2.5 °C 1006.7 hPa Calm     12% 0 mm 703.0 W/m2
16:20 37.2 °C 1.8 °C 1006.3 hPa SSW 1.4 km/h 1.6 km/h 11% 0 mm 656.0 W/m2
16:35 37.2 °C 1.8 °C 1006 hPa Calm     11% 0 mm 605.0 W/m2
16:46 37.4 °C 2 °C 1006 hPa Calm     11% 0 mm 575.0 W/m2
16:56 37.6 °C 2.1 °C 1005.6 hPa SSW 7.9 km/h 9.7 km/h 11% 0 mm 538.0 W/m2
17:01 37.2 °C 1.8 °C 1005.6 hPa SSW 4.7 km/h 11.3 km/h 11% 0 mm 520.0 W/m2
17:11 36.9 °C 1.6 °C 1005.6 hPa Calm   9.7 km/h 11% 0 mm 485.0 W/m2
17:21 37.1 °C 3 °C 1005.6 hPa SSW 3.2 km/h 4.8 km/h 12% 0 mm 450.0 W/m2
17:42 37.1 °C 1.8 °C 1005.6 hPa Calm     11% 0 mm 399.0 W/m2
17:46 37.1 °C 1.8 °C 1005.6 hPa Calm   8 km/h 11% 0 mm 359.0 W/m2
18:00 36.8 °C 1.5 °C 1005.6 hPa Calm   4.8 km/h 11% 0 mm 323.0 W/m2
18:01 36.8 °C 2.7 °C 1005.6 hPa SSW 1.4 km/h 9.7 km/h 12% 0 mm 306.0 W/m2
18:10 36.7 °C 2.7 °C 1005.3 hPa Calm     12% 0 mm 287.0 W/m2
18:12 36.7 °C 2.7 °C 1005.6 hPa Calm     12% 0 mm 267.0 W/m2
18:22 36.7 °C 1.4 °C 1005.3 hPa Calm     11% 0 mm 248.0 W/m2
18:31 36.6 °C 2.6 °C 1005.6 hPa Calm   4.8 km/h 12% 0 mm 206.0 W/m2
18:41 36.6 °C 2.6 °C 1005.6 hPa Calm     12% 0 mm 158.0 W/m2
18:43 36.6 °C 2.6 °C 1005.6 hPa Calm     12% 0 mm 135.0 W/m2
18:53 36.8 °C 1.5 °C 1005.6 hPa Calm     11% 0 mm 95.0 W/m2
19:03 36.8 °C 1.5 °C 1005.6 hPa SSW 13 km/h 14.5 km/h 11% 0 mm 60.0 W/m2
19:13 36.1 °C 2.2 °C 1005.6 hPa Calm     12% 0 mm 28.0 W/m2
19:33 35.6 °C 2.9 °C 1006 hPa Calm     13% 0 mm 11.0 W/m2
19:39 35.2 °C 2.6 °C 1006 hPa SSW 13 km/h 14.5 km/h 13% 0 mm 5.0 W/m2
19:51 34.2 °C 6.5 °C 1006.3 hPa SSW 24.1 km/h 24.1 km/h 18% 0 mm 0.0 W/m2
Canyon Roadhouse, Fishriver Canyon, Namibia
Compliments of Weather Underground - 1.75 mb